sensor_id;sensor_type;location;lat;lon;timestamp;P1;durP1;ratioP1;P2;durP2;ratioP2
18677;SDS011;9469;51.114;13.914;2024-02-16T00:03:55;24.23;;;15.83;;
18677;SDS011;9469;51.114;13.914;2024-02-16T00:09:03;28.60;;;16.90;;
18677;SDS011;9469;51.114;13.914;2024-02-16T00:14:12;24.70;;;14.67;;
18677;SDS011;9469;51.114;13.914;2024-02-16T00:19:19;23.07;;;14.80;;
18677;SDS011;9469;51.114;13.914;2024-02-16T00:24:27;20.60;;;14.27;;
18677;SDS011;9469;51.114;13.914;2024-02-16T00:29:33;24.90;;;15.50;;
18677;SDS011;9469;51.114;13.914;2024-02-16T00:34:41;24.57;;;15.37;;
18677;SDS011;9469;51.114;13.914;2024-02-16T00:39:49;22.77;;;15.07;;
18677;SDS011;9469;51.114;13.914;2024-02-16T00:44:56;24.53;;;14.43;;
18677;SDS011;9469;51.114;13.914;2024-02-16T00:50:06;23.67;;;16.47;;
18677;SDS011;9469;51.114;13.914;2024-02-16T00:55:20;20.80;;;14.70;;
18677;SDS011;9469;51.114;13.914;2024-02-16T01:00:25;23.00;;;15.77;;
18677;SDS011;9469;51.114;13.914;2024-02-16T01:05:30;23.00;;;16.30;;
18677;SDS011;9469;51.114;13.914;2024-02-16T01:10:39;24.13;;;15.57;;
18677;SDS011;9469;51.114;13.914;2024-02-16T01:15:45;21.60;;;15.27;;
18677;SDS011;9469;51.114;13.914;2024-02-16T01:20:50;21.90;;;15.20;;
18677;SDS011;9469;51.114;13.914;2024-02-16T01:25:58;25.70;;;15.23;;
18677;SDS011;9469;51.114;13.914;2024-02-16T01:31:03;20.97;;;15.27;;
18677;SDS011;9469;51.114;13.914;2024-02-16T01:36:11;24.77;;;16.30;;
18677;SDS011;9469;51.114;13.914;2024-02-16T01:41:22;26.10;;;16.83;;
18677;SDS011;9469;51.114;13.914;2024-02-16T01:46:28;23.40;;;15.67;;
18677;SDS011;9469;51.114;13.914;2024-02-16T01:51:35;24.27;;;17.30;;
18677;SDS011;9469;51.114;13.914;2024-02-16T01:56:44;23.43;;;16.23;;
18677;SDS011;9469;51.114;13.914;2024-02-16T02:01:54;24.73;;;17.60;;
18677;SDS011;9469;51.114;13.914;2024-02-16T02:06:59;26.83;;;18.27;;
18677;SDS011;9469;51.114;13.914;2024-02-16T02:12:19;23.97;;;17.53;;
18677;SDS011;9469;51.114;13.914;2024-02-16T02:17:24;26.17;;;17.10;;
18677;SDS011;9469;51.114;13.914;2024-02-16T02:22:32;26.50;;;18.10;;
18677;SDS011;9469;51.114;13.914;2024-02-16T02:27:39;26.53;;;17.73;;
18677;SDS011;9469;51.114;13.914;2024-02-16T02:32:44;24.47;;;18.40;;
18677;SDS011;9469;51.114;13.914;2024-02-16T02:37:54;30.60;;;18.80;;
18677;SDS011;9469;51.114;13.914;2024-02-16T02:43:02;24.67;;;17.70;;
18677;SDS011;9469;51.114;13.914;2024-02-16T02:48:08;24.43;;;17.73;;
18677;SDS011;9469;51.114;13.914;2024-02-16T02:53:18;27.33;;;18.53;;
18677;SDS011;9469;51.114;13.914;2024-02-16T02:58:26;28.20;;;18.67;;
18677;SDS011;9469;51.114;13.914;2024-02-16T03:03:31;25.20;;;18.57;;
18677;SDS011;9469;51.114;13.914;2024-02-16T03:08:42;31.40;;;19.13;;
18677;SDS011;9469;51.114;13.914;2024-02-16T03:13:50;26.47;;;18.70;;
18677;SDS011;9469;51.114;13.914;2024-02-16T03:18:57;28.43;;;19.77;;
18677;SDS011;9469;51.114;13.914;2024-02-16T03:24:06;28.30;;;18.67;;
18677;SDS011;9469;51.114;13.914;2024-02-16T03:29:12;26.83;;;18.20;;
18677;SDS011;9469;51.114;13.914;2024-02-16T03:34:20;23.83;;;17.53;;
18677;SDS011;9469;51.114;13.914;2024-02-16T03:39:28;28.87;;;19.67;;
18677;SDS011;9469;51.114;13.914;2024-02-16T03:44:35;26.57;;;17.87;;
18677;SDS011;9469;51.114;13.914;2024-02-16T03:49:42;22.90;;;16.40;;
18677;SDS011;9469;51.114;13.914;2024-02-16T03:54:52;23.80;;;18.10;;
18677;SDS011;9469;51.114;13.914;2024-02-16T03:59:59;24.27;;;17.67;;
18677;SDS011;9469;51.114;13.914;2024-02-16T04:05:15;24.73;;;16.90;;
18677;SDS011;9469;51.114;13.914;2024-02-16T04:10:24;23.00;;;17.37;;
18677;SDS011;9469;51.114;13.914;2024-02-16T04:15:34;21.60;;;17.40;;
18677;SDS011;9469;51.114;13.914;2024-02-16T04:20:40;20.87;;;15.93;;
18677;SDS011;9469;51.114;13.914;2024-02-16T04:25:49;24.17;;;16.43;;
18677;SDS011;9469;51.114;13.914;2024-02-16T04:30:54;23.47;;;17.50;;
18677;SDS011;9469;51.114;13.914;2024-02-16T04:36:05;26.07;;;17.63;;
18677;SDS011;9469;51.114;13.914;2024-02-16T04:41:14;24.37;;;17.13;;
18677;SDS011;9469;51.114;13.914;2024-02-16T04:46:19;22.53;;;16.97;;
18677;SDS011;9469;51.114;13.914;2024-02-16T04:51:24;20.87;;;15.57;;
18677;SDS011;9469;51.114;13.914;2024-02-16T04:56:34;20.63;;;16.20;;
18677;SDS011;9469;51.114;13.914;2024-02-16T05:01:42;24.20;;;17.27;;
18677;SDS011;9469;51.114;13.914;2024-02-16T05:06:48;19.80;;;15.17;;
18677;SDS011;9469;51.114;13.914;2024-02-16T05:11:59;25.27;;;17.10;;
18677;SDS011;9469;51.114;13.914;2024-02-16T05:17:04;22.97;;;17.23;;
18677;SDS011;9469;51.114;13.914;2024-02-16T05:22:11;24.03;;;17.17;;
18677;SDS011;9469;51.114;13.914;2024-02-16T05:39:04;20.30;;;14.97;;
18677;SDS011;9469;51.114;13.914;2024-02-16T05:44:26;24.97;;;17.93;;
18677;SDS011;9469;51.114;13.914;2024-02-16T05:49:35;23.57;;;17.07;;
18677;SDS011;9469;51.114;13.914;2024-02-16T05:54:43;26.53;;;19.03;;
18677;SDS011;9469;51.114;13.914;2024-02-16T05:59:50;23.90;;;17.27;;
18677;SDS011;9469;51.114;13.914;2024-02-16T06:04:58;24.57;;;17.03;;
18677;SDS011;9469;51.114;13.914;2024-02-16T06:10:07;25.20;;;17.37;;
18677;SDS011;9469;51.114;13.914;2024-02-16T06:15:14;29.17;;;18.37;;
18677;SDS011;9469;51.114;13.914;2024-02-16T06:20:22;30.83;;;20.00;;
18677;SDS011;9469;51.114;13.914;2024-02-16T06:25:33;27.10;;;19.40;;
18677;SDS011;9469;51.114;13.914;2024-02-16T06:30:38;25.00;;;18.90;;
18677;SDS011;9469;51.114;13.914;2024-02-16T06:35:46;24.87;;;18.87;;
18677;SDS011;9469;51.114;13.914;2024-02-16T06:40:56;27.87;;;19.53;;
18677;SDS011;9469;51.114;13.914;2024-02-16T06:46:01;29.17;;;19.43;;
18677;SDS011;9469;51.114;13.914;2024-02-16T06:51:14;29.43;;;19.23;;
18677;SDS011;9469;51.114;13.914;2024-02-16T06:56:22;28.57;;;18.27;;
18677;SDS011;9469;51.114;13.914;2024-02-16T07:01:28;28.87;;;18.77;;
18677;SDS011;9469;51.114;13.914;2024-02-16T07:06:36;27.20;;;18.63;;
18677;SDS011;9469;51.114;13.914;2024-02-16T07:11:46;24.43;;;18.33;;
18677;SDS011;9469;51.114;13.914;2024-02-16T07:16:55;23.67;;;18.07;;
18677;SDS011;9469;51.114;13.914;2024-02-16T07:22:00;28.00;;;19.43;;
18677;SDS011;9469;51.114;13.914;2024-02-16T07:27:11;26.90;;;18.70;;
18677;SDS011;9469;51.114;13.914;2024-02-16T07:32:19;26.23;;;18.50;;
18677;SDS011;9469;51.114;13.914;2024-02-16T07:37:24;24.67;;;17.93;;
18677;SDS011;9469;51.114;13.914;2024-02-16T07:42:34;27.57;;;18.57;;
18677;SDS011;9469;51.114;13.914;2024-02-16T07:47:45;26.07;;;18.67;;
18677;SDS011;9469;51.114;13.914;2024-02-16T07:52:51;26.87;;;18.00;;
18677;SDS011;9469;51.114;13.914;2024-02-16T07:57:59;23.43;;;17.00;;
18677;SDS011;9469;51.114;13.914;2024-02-16T08:03:05;22.33;;;16.53;;
18677;SDS011;9469;51.114;13.914;2024-02-16T08:08:12;27.73;;;17.13;;
18677;SDS011;9469;51.114;13.914;2024-02-16T08:13:20;25.93;;;18.37;;
18677;SDS011;9469;51.114;13.914;2024-02-16T08:18:25;24.77;;;18.30;;
18677;SDS011;9469;51.114;13.914;2024-02-16T08:23:31;23.33;;;17.57;;
18677;SDS011;9469;51.114;13.914;2024-02-16T08:28:39;26.10;;;17.80;;
18677;SDS011;9469;51.114;13.914;2024-02-16T08:33:44;21.00;;;15.20;;
18677;SDS011;9469;51.114;13.914;2024-02-16T08:38:56;19.10;;;15.00;;
18677;SDS011;9469;51.114;13.914;2024-02-16T08:44:05;22.50;;;15.07;;
18677;SDS011;9469;51.114;13.914;2024-02-16T08:49:12;21.27;;;16.03;;
18677;SDS011;9469;51.114;13.914;2024-02-16T08:54:18;18.30;;;15.03;;
18677;SDS011;9469;51.114;13.914;2024-02-16T08:59:26;23.43;;;16.93;;
18677;SDS011;9469;51.114;13.914;2024-02-16T09:04:33;25.40;;;16.50;;
18677;SDS011;9469;51.114;13.914;2024-02-16T09:09:38;22.20;;;16.07;;
18677;SDS011;9469;51.114;13.914;2024-02-16T09:14:47;22.63;;;15.87;;
18677;SDS011;9469;51.114;13.914;2024-02-16T09:19:59;22.20;;;15.17;;
18677;SDS011;9469;51.114;13.914;2024-02-16T09:25:21;23.97;;;15.10;;
18677;SDS011;9469;51.114;13.914;2024-02-16T09:30:37;21.40;;;16.03;;
18677;SDS011;9469;51.114;13.914;2024-02-16T09:35:43;20.00;;;15.33;;
18677;SDS011;9469;51.114;13.914;2024-02-16T09:40:54;19.93;;;14.10;;
18677;SDS011;9469;51.114;13.914;2024-02-16T09:46:12;21.03;;;14.70;;
18677;SDS011;9469;51.114;13.914;2024-02-16T09:51:41;22.43;;;14.63;;
18677;SDS011;9469;51.114;13.914;2024-02-16T09:56:57;19.67;;;13.47;;
18677;SDS011;9469;51.114;13.914;2024-02-16T10:02:14;17.67;;;14.00;;
18677;SDS011;9469;51.114;13.914;2024-02-16T10:07:30;21.53;;;13.93;;
18677;SDS011;9469;51.114;13.914;2024-02-16T10:12:36;19.77;;;14.07;;
18677;SDS011;9469;51.114;13.914;2024-02-16T10:17:56;18.30;;;13.77;;
18677;SDS011;9469;51.114;13.914;2024-02-16T10:23:07;21.17;;;14.80;;
18677;SDS011;9469;51.114;13.914;2024-02-16T10:28:14;18.63;;;14.03;;
18677;SDS011;9469;51.114;13.914;2024-02-16T10:33:24;20.83;;;14.67;;
18677;SDS011;9469;51.114;13.914;2024-02-16T10:38:34;20.80;;;14.50;;
18677;SDS011;9469;51.114;13.914;2024-02-16T10:43:42;21.43;;;13.57;;
18677;SDS011;9469;51.114;13.914;2024-02-16T10:48:51;19.33;;;14.47;;
18677;SDS011;9469;51.114;13.914;2024-02-16T10:53:56;18.90;;;14.47;;
18677;SDS011;9469;51.114;13.914;2024-02-16T10:59:08;21.47;;;15.40;;
18677;SDS011;9469;51.114;13.914;2024-02-16T11:04:18;16.77;;;13.77;;
18677;SDS011;9469;51.114;13.914;2024-02-16T11:09:27;18.77;;;13.73;;
18677;SDS011;9469;51.114;13.914;2024-02-16T11:14:34;15.97;;;12.60;;
18677;SDS011;9469;51.114;13.914;2024-02-16T11:19:44;16.20;;;14.13;;
18677;SDS011;9469;51.114;13.914;2024-02-16T11:24:53;17.73;;;14.50;;
18677;SDS011;9469;51.114;13.914;2024-02-16T11:30:03;17.17;;;14.40;;
18677;SDS011;9469;51.114;13.914;2024-02-16T11:35:12;17.50;;;14.43;;
18677;SDS011;9469;51.114;13.914;2024-02-16T11:40:18;18.63;;;14.53;;
18677;SDS011;9469;51.114;13.914;2024-02-16T11:45:24;17.13;;;13.47;;
18677;SDS011;9469;51.114;13.914;2024-02-16T11:50:32;18.73;;;13.70;;
18677;SDS011;9469;51.114;13.914;2024-02-16T11:55:37;20.70;;;14.33;;
18677;SDS011;9469;51.114;13.914;2024-02-16T12:00:42;17.23;;;13.27;;
18677;SDS011;9469;51.114;13.914;2024-02-16T12:05:53;17.50;;;14.30;;
18677;SDS011;9469;51.114;13.914;2024-02-16T12:11:01;19.00;;;14.03;;
18677;SDS011;9469;51.114;13.914;2024-02-16T12:16:07;16.13;;;12.90;;
18677;SDS011;9469;51.114;13.914;2024-02-16T12:21:17;18.53;;;14.90;;
18677;SDS011;9469;51.114;13.914;2024-02-16T12:26:24;17.27;;;13.87;;
18677;SDS011;9469;51.114;13.914;2024-02-16T12:31:32;15.93;;;12.43;;
18677;SDS011;9469;51.114;13.914;2024-02-16T12:36:54;19.27;;;12.97;;
18677;SDS011;9469;51.114;13.914;2024-02-16T12:41:59;17.47;;;12.97;;
18677;SDS011;9469;51.114;13.914;2024-02-16T12:47:05;14.30;;;11.90;;
18677;SDS011;9469;51.114;13.914;2024-02-16T12:52:13;15.37;;;12.63;;
18677;SDS011;9469;51.114;13.914;2024-02-16T12:57:26;15.33;;;12.10;;
18677;SDS011;9469;51.114;13.914;2024-02-16T13:02:31;14.23;;;11.23;;
18677;SDS011;9469;51.114;13.914;2024-02-16T13:07:39;15.30;;;10.73;;
18677;SDS011;9469;51.114;13.914;2024-02-16T13:12:46;18.47;;;12.97;;
18677;SDS011;9469;51.114;13.914;2024-02-16T13:17:53;15.47;;;12.23;;
18677;SDS011;9469;51.114;13.914;2024-02-16T13:23:05;14.87;;;11.87;;
18677;SDS011;9469;51.114;13.914;2024-02-16T13:28:12;15.03;;;11.57;;
18677;SDS011;9469;51.114;13.914;2024-02-16T13:33:24;17.60;;;12.33;;
18677;SDS011;9469;51.114;13.914;2024-02-16T13:38:35;15.63;;;12.37;;
18677;SDS011;9469;51.114;13.914;2024-02-16T13:43:43;15.73;;;13.07;;
18677;SDS011;9469;51.114;13.914;2024-02-16T13:48:48;18.83;;;14.60;;
18677;SDS011;9469;51.114;13.914;2024-02-16T13:53:59;19.03;;;14.20;;
18677;SDS011;9469;51.114;13.914;2024-02-16T13:59:06;19.50;;;13.57;;
18677;SDS011;9469;51.114;13.914;2024-02-16T14:04:16;17.63;;;13.00;;
18677;SDS011;9469;51.114;13.914;2024-02-16T14:09:28;16.63;;;13.33;;
18677;SDS011;9469;51.114;13.914;2024-02-16T14:14:35;18.17;;;13.57;;
18677;SDS011;9469;51.114;13.914;2024-02-16T14:19:40;17.67;;;14.00;;
18677;SDS011;9469;51.114;13.914;2024-02-16T14:24:48;19.53;;;15.73;;
18677;SDS011;9469;51.114;13.914;2024-02-16T14:29:53;20.53;;;14.80;;
18677;SDS011;9469;51.114;13.914;2024-02-16T14:34:59;20.57;;;16.73;;
18677;SDS011;9469;51.114;13.914;2024-02-16T14:40:12;21.00;;;15.70;;
18677;SDS011;9469;51.114;13.914;2024-02-16T14:45:17;20.43;;;16.13;;
18677;SDS011;9469;51.114;13.914;2024-02-16T14:50:23;18.97;;;15.63;;
18677;SDS011;9469;51.114;13.914;2024-02-16T14:55:39;20.50;;;16.37;;
18677;SDS011;9469;51.114;13.914;2024-02-16T15:00:48;20.63;;;15.67;;
18677;SDS011;9469;51.114;13.914;2024-02-16T15:05:54;22.03;;;15.70;;
18677;SDS011;9469;51.114;13.914;2024-02-16T15:11:02;18.53;;;14.40;;
18677;SDS011;9469;51.114;13.914;2024-02-16T15:16:07;21.40;;;15.40;;
18677;SDS011;9469;51.114;13.914;2024-02-16T15:21:12;21.40;;;15.63;;
18677;SDS011;9469;51.114;13.914;2024-02-16T15:26:22;24.03;;;16.17;;
18677;SDS011;9469;51.114;13.914;2024-02-16T15:31:32;20.53;;;16.33;;
18677;SDS011;9469;51.114;13.914;2024-02-16T15:36:37;21.23;;;16.33;;
18677;SDS011;9469;51.114;13.914;2024-02-16T15:41:45;24.93;;;17.13;;
18677;SDS011;9469;51.114;13.914;2024-02-16T15:46:58;25.27;;;17.87;;
18677;SDS011;9469;51.114;13.914;2024-02-16T15:52:03;22.23;;;16.17;;
18677;SDS011;9469;51.114;13.914;2024-02-16T15:57:13;21.53;;;17.07;;
18677;SDS011;9469;51.114;13.914;2024-02-16T16:02:21;21.33;;;18.20;;
18677;SDS011;9469;51.114;13.914;2024-02-16T16:07:27;24.47;;;18.00;;
18677;SDS011;9469;51.114;13.914;2024-02-16T16:12:34;24.63;;;18.87;;
18677;SDS011;9469;51.114;13.914;2024-02-16T16:17:40;26.30;;;18.60;;
18677;SDS011;9469;51.114;13.914;2024-02-16T16:22:45;26.10;;;19.37;;
18677;SDS011;9469;51.114;13.914;2024-02-16T16:27:53;24.40;;;17.83;;
18677;SDS011;9469;51.114;13.914;2024-02-16T16:32:58;25.87;;;19.27;;
18677;SDS011;9469;51.114;13.914;2024-02-16T16:38:05;31.63;;;19.73;;
18677;SDS011;9469;51.114;13.914;2024-02-16T16:43:14;25.00;;;19.10;;
18677;SDS011;9469;51.114;13.914;2024-02-16T16:48:20;28.67;;;19.27;;
18677;SDS011;9469;51.114;13.914;2024-02-16T16:53:28;29.47;;;20.27;;
18677;SDS011;9469;51.114;13.914;2024-02-16T16:58:36;29.50;;;20.83;;
18677;SDS011;9469;51.114;13.914;2024-02-16T17:03:47;25.77;;;18.93;;
18677;SDS011;9469;51.114;13.914;2024-02-16T17:08:55;30.80;;;20.73;;
18677;SDS011;9469;51.114;13.914;2024-02-16T17:14:04;30.17;;;20.90;;
18677;SDS011;9469;51.114;13.914;2024-02-16T17:19:13;34.37;;;21.83;;
18677;SDS011;9469;51.114;13.914;2024-02-16T17:24:19;27.63;;;19.77;;
18677;SDS011;9469;51.114;13.914;2024-02-16T17:29:27;26.17;;;20.03;;
18677;SDS011;9469;51.114;13.914;2024-02-16T17:34:32;31.00;;;20.47;;
18677;SDS011;9469;51.114;13.914;2024-02-16T17:39:43;27.00;;;20.00;;
18677;SDS011;9469;51.114;13.914;2024-02-16T17:44:54;32.83;;;22.60;;
18677;SDS011;9469;51.114;13.914;2024-02-16T17:50:13;27.70;;;20.90;;
18677;SDS011;9469;51.114;13.914;2024-02-16T17:55:21;27.63;;;19.67;;
18677;SDS011;9469;51.114;13.914;2024-02-16T18:00:46;26.90;;;20.40;;
18677;SDS011;9469;51.114;13.914;2024-02-16T18:05:52;29.57;;;19.40;;
18677;SDS011;9469;51.114;13.914;2024-02-16T18:10:58;28.67;;;20.43;;
18677;SDS011;9469;51.114;13.914;2024-02-16T18:16:09;28.43;;;20.63;;
18677;SDS011;9469;51.114;13.914;2024-02-16T18:21:16;30.77;;;20.80;;
18677;SDS011;9469;51.114;13.914;2024-02-16T18:26:22;27.83;;;20.30;;
18677;SDS011;9469;51.114;13.914;2024-02-16T18:31:34;28.17;;;19.90;;
18677;SDS011;9469;51.114;13.914;2024-02-16T18:36:43;31.67;;;20.67;;
18677;SDS011;9469;51.114;13.914;2024-02-16T18:41:52;30.23;;;20.60;;
18677;SDS011;9469;51.114;13.914;2024-02-16T18:47:02;31.97;;;21.23;;
18677;SDS011;9469;51.114;13.914;2024-02-16T18:52:10;32.57;;;21.00;;
18677;SDS011;9469;51.114;13.914;2024-02-16T18:57:17;28.43;;;20.40;;
18677;SDS011;9469;51.114;13.914;2024-02-16T19:02:27;28.93;;;20.83;;
18677;SDS011;9469;51.114;13.914;2024-02-16T19:07:32;29.07;;;20.13;;
18677;SDS011;9469;51.114;13.914;2024-02-16T19:12:37;31.30;;;21.33;;
18677;SDS011;9469;51.114;13.914;2024-02-16T19:17:48;29.50;;;21.47;;
18677;SDS011;9469;51.114;13.914;2024-02-16T19:22:54;28.23;;;20.27;;
18677;SDS011;9469;51.114;13.914;2024-02-16T19:28:00;31.97;;;21.93;;
18677;SDS011;9469;51.114;13.914;2024-02-16T19:33:08;30.57;;;20.63;;
18677;SDS011;9469;51.114;13.914;2024-02-16T19:38:14;32.10;;;20.03;;
18677;SDS011;9469;51.114;13.914;2024-02-16T19:43:19;34.43;;;22.70;;
18677;SDS011;9469;51.114;13.914;2024-02-16T19:48:28;30.13;;;21.13;;
18677;SDS011;9469;51.114;13.914;2024-02-16T19:53:34;30.97;;;22.47;;
18677;SDS011;9469;51.114;13.914;2024-02-16T19:58:39;30.27;;;21.33;;
18677;SDS011;9469;51.114;13.914;2024-02-16T20:03:48;29.93;;;20.83;;
18677;SDS011;9469;51.114;13.914;2024-02-16T20:08:53;28.83;;;21.50;;
18677;SDS011;9469;51.114;13.914;2024-02-16T20:14:03;34.47;;;22.57;;
18677;SDS011;9469;51.114;13.914;2024-02-16T20:19:10;32.47;;;21.63;;
18677;SDS011;9469;51.114;13.914;2024-02-16T20:24:16;32.60;;;23.27;;
18677;SDS011;9469;51.114;13.914;2024-02-16T20:29:22;31.50;;;21.93;;
18677;SDS011;9469;51.114;13.914;2024-02-16T20:34:31;34.50;;;22.03;;
18677;SDS011;9469;51.114;13.914;2024-02-16T20:39:36;29.47;;;22.07;;
18677;SDS011;9469;51.114;13.914;2024-02-16T20:44:41;32.20;;;21.70;;
18677;SDS011;9469;51.114;13.914;2024-02-16T20:49:49;30.93;;;22.77;;
18677;SDS011;9469;51.114;13.914;2024-02-16T20:54:55;31.77;;;22.97;;
18677;SDS011;9469;51.114;13.914;2024-02-16T21:00:00;31.67;;;21.50;;
18677;SDS011;9469;51.114;13.914;2024-02-16T21:05:12;31.93;;;21.40;;
18677;SDS011;9469;51.114;13.914;2024-02-16T21:10:18;30.97;;;20.97;;
18677;SDS011;9469;51.114;13.914;2024-02-16T21:15:24;32.03;;;21.57;;
18677;SDS011;9469;51.114;13.914;2024-02-16T21:20:32;32.70;;;21.97;;
18677;SDS011;9469;51.114;13.914;2024-02-16T21:25:38;29.00;;;19.53;;
18677;SDS011;9469;51.114;13.914;2024-02-16T21:30:44;27.90;;;21.37;;
18677;SDS011;9469;51.114;13.914;2024-02-16T21:35:52;31.47;;;21.10;;
18677;SDS011;9469;51.114;13.914;2024-02-16T21:41:02;28.47;;;20.13;;
18677;SDS011;9469;51.114;13.914;2024-02-16T21:46:12;28.13;;;19.97;;
18677;SDS011;9469;51.114;13.914;2024-02-16T21:51:19;34.23;;;20.30;;
18677;SDS011;9469;51.114;13.914;2024-02-16T21:56:25;29.47;;;19.20;;
18677;SDS011;9469;51.114;13.914;2024-02-16T22:01:30;29.77;;;18.33;;
18677;SDS011;9469;51.114;13.914;2024-02-16T22:06:39;28.20;;;19.37;;
18677;SDS011;9469;51.114;13.914;2024-02-16T22:11:44;27.40;;;18.67;;
18677;SDS011;9469;51.114;13.914;2024-02-16T22:16:50;30.40;;;18.00;;
18677;SDS011;9469;51.114;13.914;2024-02-16T22:21:59;25.40;;;18.53;;
18677;SDS011;9469;51.114;13.914;2024-02-16T22:27:05;22.40;;;16.50;;
18677;SDS011;9469;51.114;13.914;2024-02-16T22:32:10;27.17;;;18.20;;
18677;SDS011;9469;51.114;13.914;2024-02-16T22:37:21;25.47;;;18.30;;
18677;SDS011;9469;51.114;13.914;2024-02-16T22:42:27;22.90;;;16.93;;
18677;SDS011;9469;51.114;13.914;2024-02-16T22:47:32;26.27;;;16.73;;
18677;SDS011;9469;51.114;13.914;2024-02-16T22:52:47;23.43;;;16.83;;
18677;SDS011;9469;51.114;13.914;2024-02-16T22:57:53;25.20;;;16.93;;
18677;SDS011;9469;51.114;13.914;2024-02-16T23:02:59;22.47;;;16.03;;
18677;SDS011;9469;51.114;13.914;2024-02-16T23:08:10;24.03;;;16.90;;
18677;SDS011;9469;51.114;13.914;2024-02-16T23:13:15;27.03;;;17.00;;
18677;SDS011;9469;51.114;13.914;2024-02-16T23:18:24;23.80;;;17.47;;
18677;SDS011;9469;51.114;13.914;2024-02-16T23:23:32;25.13;;;16.30;;
18677;SDS011;9469;51.114;13.914;2024-02-16T23:28:37;28.00;;;17.13;;
18677;SDS011;9469;51.114;13.914;2024-02-16T23:33:44;17.67;;;13.00;;
18677;SDS011;9469;51.114;13.914;2024-02-16T23:38:52;15.17;;;10.33;;
18677;SDS011;9469;51.114;13.914;2024-02-16T23:43:57;15.37;;;10.83;;
18677;SDS011;9469;51.114;13.914;2024-02-16T23:49:03;12.47;;;9.17;;
18677;SDS011;9469;51.114;13.914;2024-02-16T23:54:11;12.50;;;8.73;;
18677;SDS011;9469;51.114;13.914;2024-02-16T23:59:16;13.93;;;9.07;;
